^^

Forecast Yr.no

English only

  Yr.no V2


NEW! Browse more than 3 million forecasts in 240 countries.
How-to: Choose country in dropdown, then write few first letters of the place in the box and the search suggests hits.



Forecast for Petit Raffray, Mauritius

Last update: 26.02.2020 01:33
Next update: 26.02.2020 07:46
Latitude: 20.03° S
Longitude: 57.62° E
Altitude: 111 m

hPa
mm °C
    Temperature Precipitation Pressure Wind Humidity Clouds Fog
 06:06     18:38 Today
08:00 3.3 mm 1012.3 hPa 18 km/h 95% 100%
09:00 1.9 mm 1012.3 hPa 16 km/h 92% 100%
10:00 1.6 mm 1012.5 hPa 18 km/h 91% 100%
11:00 1.5 mm 1012.5 hPa 19 km/h 92% 100%
12:00 1.9 mm 1012.2 hPa 21 km/h 93% 100%
13:00 1.6 mm 1011.5 hPa 19 km/h 91% 100%
14:00 1.0 mm 1010.8 hPa 16 km/h 88% 100%
15:00 0.7 mm 1010.5 hPa 15 km/h 87% 100%
16:00 0.4 mm 1010.3 hPa 15 km/h 87% 99%
17:00 0.1 mm 1009.9 hPa 18 km/h 89% 98%
18:00   1010.5 hPa 14 km/h 91% 96%
19:00 0.8 mm 1011.5 hPa 4 km/h 92% 95%
20:00 2.3 mm 1012.3 hPa 8 km/h 92% 100%
21:00 0.4 mm 1012.5 hPa 10 km/h 94% 98%
22:00   1012.8 hPa 11 km/h 94% 98%
23:00 0.5 mm 1013.2 hPa 7 km/h 95% 100%
 06:06     18:38 Tomorrow
00:00 2.2 mm 1013.0 hPa 9 km/h 95% 100%
01:00 2.7 mm 1012.7 hPa 8 km/h 95% 100% 1%
02:00 2.8 mm 1012.3 hPa 6 km/h 95% 100%
03:00 2.0 mm 1011.9 hPa 10 km/h 95% 99%
04:00 2.6 mm 1011.9 hPa 9 km/h 94% 99%
05:00 1.0 mm 1012.1 hPa 10 km/h 92% 99%
06:00 1.0 mm 1012.6 hPa 10 km/h 93% 99%
07:00 0.4 mm 1012.9 hPa 11 km/h 92% 99%
08:00 0.5 mm 1013.6 hPa 17 km/h 88% 100%
09:00 0.8 mm 1013.9 hPa 18 km/h 87% 99%
10:00 0.7 mm 1014.1 hPa 23 km/h 92% 100%
11:00 0.9 mm 1013.7 hPa 18 km/h 90% 100%
12:00 0.6 mm 1013.0 hPa 18 km/h 85% 100%
13:00 0.5 mm 1012.3 hPa 18 km/h 87% 99%
14:00 0.3 mm 1011.8 hPa 19 km/h 89% 98%
15:00 0.2 mm 1011.3 hPa 18 km/h 84% 100%
16:00 0.4 mm 1011.2 hPa 18 km/h 85% 100%
17:00 0.9 mm 1011.2 hPa 15 km/h 88% 100%
18:00 0.7 mm 1011.7 hPa 15 km/h 90% 100%
19:00 1.0 mm 1012.4 hPa 13 km/h 93% 100%
20:00 1.1 mm 1012.8 hPa 12 km/h 94% 99%
21:00 0.6 mm 1013.2 hPa 13 km/h 94% 100%
22:00 0.5 mm 1013.3 hPa 17 km/h 94% 100%
23:00 0.4 mm 1012.9 hPa 17 km/h 95% 100%
 06:06     18:37 Friday 28.02.2020
00:00 0.1 mm 1012.3 hPa 14 km/h 95% 100%
01:00 0.1 mm 1011.6 hPa 16 km/h 93% 100%
02:00 0.6 mm 1011.3 hPa 16 km/h 95% 100%
03:00 1.3 mm 1010.8 hPa 13 km/h 95% 100%
04:00 2.4 mm 1010.5 hPa 15 km/h 96% 100%
05:00 2.3 mm 1010.8 hPa 10 km/h 95% 100%
06:00 4.1 mm 1011.4 hPa 12 km/h 96% 100%
07:00 3.6 mm 1011.9 hPa 14 km/h 95% 100%
08:00 3.9 mm 1012.7 hPa 10 km/h 96% 100%
09:00 4.8 mm 1012.9 hPa 15 km/h 96% 100% 2%
10:00 4.6 mm 1012.5 hPa 18 km/h 95% 100%
11:00 4.2 mm 1011.8 hPa 18 km/h 94% 100%
12:00 2.6 mm 1011.2 hPa 24 km/h 93% 100%
13:00 2.0 mm 1010.5 hPa 22 km/h 91% 100%
14:00 2.0 mm 1009.4 hPa 21 km/h 91% 100%
15:00 1.6 mm 1008.9 hPa 22 km/h 90% 100%
16:00 1.4 mm 1008.7 hPa 18 km/h 89% 100%
17:00 0.9 mm 1008.9 hPa 19 km/h 90% 100%
18:00 1.3 mm 1009.6 hPa 16 km/h 92% 100%
19:00 1.6 mm 1009.9 hPa 12 km/h 94% 100%
20:00 1.0 mm 1010.2 hPa 14 km/h 95% 100%
21:00 0.9 mm 1010.8 hPa 14 km/h 95% 99%
22:00 1.7 mm 1010.8 hPa 13 km/h 95% 100% 1%
 06:07     18:36 Saturday 29.02.2020
04:00 11.6 mm 1007.6 hPa 15 km/h 95% 100%
10:00 21.1 mm 1008.8 hPa 23 km/h 92% 100%
16:00 13.4 mm 1005.6 hPa 10 km/h 92% 100%
22:00 3.5 mm 1007.7 hPa 12 km/h 94% 98%
 06:07     18:35 Sunday 01.03.2020
04:00 5.2 mm 1004.8 hPa 10 km/h 94% 100%
10:00 2.3 mm 1007.0 hPa 14 km/h 90% 98%
16:00 5.5 mm 1004.4 hPa 13 km/h 86% 99%
22:00 5.0 mm 1007.6 hPa 11 km/h 92% 99%
 06:07     18:35 Monday 02.03.2020
04:00 3.2 mm 1005.6 hPa 15 km/h 94% 99%
10:00 1.2 mm 1008.1 hPa 14 km/h 90% 100%
16:00 20.5 mm 1006.6 hPa 13 km/h 95% 100%
22:00 11.0 mm 1007.8 hPa 20 km/h 94% 100%
 06:08     18:34 Tuesday 03.03.2020
04:00 36.8 mm 1000.5 hPa 46 km/h 93% 100%
10:00 20.4 mm 1005.5 hPa 27 km/h 86% 100%
16:00 1.1 mm 1006.3 hPa 21 km/h 85% 69%
22:00   1010.0 hPa 9 km/h 94% 98%
 06:08     18:33 Wednesday 04.03.2020
04:00   1009.2 hPa 5 km/h 98% 90%
10:00 0.1 mm 1012.1 hPa 5 km/h 78% 35%
16:00 3.8 mm 1010.8 hPa 2 km/h 84% 81%
22:00 1.0 mm 1013.3 hPa 12 km/h 91% 32%
 06:09     18:32 Thursday 05.03.2020
04:00   1011.2 hPa 13 km/h 93% 17%
10:00 0.5 mm 1013.4 hPa 14 km/h 78% 87%
16:00 3.8 mm 1011.3 hPa 11 km/h 86% 95%
22:00 1.3 mm 1013.8 hPa 22 km/h 92% 91%
 06:09     18:31 Friday 06.03.2020
04:00 0.1 mm 1011.2 hPa 18 km/h 94% 96%
10:00 0.4 mm 1013.8 hPa 18 km/h 83% 91%